createdAt,value
2019-04-26T00:00:33.974Z,17.82
2019-04-26T00:03:05.307Z,18.37
2019-04-26T00:05:39.065Z,18.83
2019-04-26T00:08:06.401Z,18.15
2019-04-26T00:10:38.707Z,18.60
2019-04-26T00:13:26.416Z,17.95
2019-04-26T00:16:06.922Z,16.67
2019-04-26T00:18:39.423Z,18.10
2019-04-26T00:21:08.015Z,16.60
2019-04-26T00:23:37.779Z,18.30
2019-04-26T00:26:07.593Z,19.30
2019-04-26T00:28:37.314Z,17.80
2019-04-26T00:31:07.048Z,18.73
2019-04-26T00:33:36.768Z,18.82
2019-04-26T00:36:06.501Z,17.20
2019-04-26T00:38:36.215Z,17.92
2019-04-26T00:41:06.780Z,17.35
2019-04-26T00:43:36.579Z,17.30
2019-04-26T00:46:07.130Z,18.02
2019-04-26T00:48:38.498Z,17.30
2019-04-26T00:51:09.373Z,17.70
2019-04-26T00:53:40.850Z,17.92
2019-04-26T00:56:11.714Z,18.10
2019-04-26T00:58:41.436Z,17.48
2019-04-26T01:01:11.782Z,18.82
2019-04-26T01:03:41.803Z,16.77
2019-04-26T01:06:13.129Z,17.90
2019-04-26T01:08:42.834Z,18.32
2019-04-26T01:11:12.550Z,17.30
2019-04-26T01:13:42.279Z,18.48
2019-04-26T01:16:12.005Z,17.98
2019-04-26T01:18:43.379Z,17.42
2019-04-26T01:21:14.981Z,18.45
2019-04-26T01:23:47.418Z,19.23
2019-04-26T01:26:23.211Z,18.42
2019-04-26T01:28:56.063Z,19.95
2019-04-26T01:31:28.185Z,17.98
2019-04-26T01:33:57.903Z,17.98
2019-04-26T01:36:29.387Z,18.05
2019-04-26T01:39:02.096Z,17.45
2019-04-26T01:41:37.544Z,18.55
2019-04-26T01:44:21.776Z,17.63
2019-04-26T01:46:53.886Z,17.52
2019-04-26T01:49:24.214Z,17.67
2019-04-26T01:51:56.886Z,18.17
2019-04-26T01:54:29.906Z,17.40
2019-04-26T01:57:04.827Z,16.95
2019-04-26T01:59:38.562Z,17.50
2019-04-26T02:02:09.850Z,17.27
2019-04-26T02:04:45.064Z,18.17
2019-04-26T02:07:17.543Z,18.02
2019-04-26T02:09:47.290Z,16.90
2019-04-26T02:12:17.014Z,18.30
2019-04-26T02:14:46.730Z,18.77
2019-04-26T02:17:16.765Z,18.77
2019-04-26T02:19:46.474Z,18.23
2019-04-26T02:22:26.596Z,19.10
2019-04-26T02:24:57.315Z,18.70
2019-04-26T02:27:28.673Z,18.45
2019-04-26T02:29:59.822Z,17.80
2019-04-26T02:32:31.383Z,18.07
2019-04-26T02:35:02.870Z,16.30
2019-04-26T02:37:34.561Z,15.98
2019-04-26T02:40:07.035Z,18.35
2019-04-26T02:42:40.449Z,16.73
2019-04-26T02:45:20.588Z,16.12
2019-04-26T02:47:55.105Z,17.12
2019-04-26T02:50:29.063Z,17.82
2019-04-26T02:53:04.771Z,17.62
2019-04-26T02:56:01.615Z,18.30
2019-04-26T02:58:43.040Z,17.20
2019-04-26T03:01:12.854Z,18.35
2019-04-26T03:03:42.579Z,17.97
2019-04-26T03:06:12.299Z,18.20
2019-04-26T03:08:42.730Z,18.77
2019-04-26T03:11:17.565Z,18.15
2019-04-26T03:13:56.574Z,17.95
2019-04-26T03:16:32.663Z,17.30
2019-04-26T03:19:06.595Z,17.35
2019-04-26T03:21:45.094Z,21.30
2019-04-26T03:24:31.078Z,23.83
2019-04-26T03:27:10.255Z,23.25
2019-04-26T03:29:43.750Z,22.77
2019-04-26T03:32:25.528Z,19.42
2019-04-26T03:35:24.177Z,19.15
2019-04-26T03:37:58.457Z,20.48
2019-04-26T03:40:37.917Z,17.30
2019-04-26T03:43:25.283Z,18.37
2019-04-26T03:46:20.272Z,17.65
2019-04-26T03:49:11.191Z,17.02
2019-04-26T03:52:00.270Z,16.42
2019-04-26T03:54:34.091Z,16.43
2019-04-26T03:57:36.331Z,16.53
2019-04-26T04:00:25.925Z,17.90
2019-04-26T04:03:09.228Z,17.57
2019-04-26T04:05:47.730Z,17.90
2019-04-26T04:08:20.578Z,18.15
2019-04-26T04:10:53.288Z,18.40
2019-04-26T04:13:54.535Z,18.75
2019-04-26T04:16:48.905Z,18.82
2019-04-26T04:19:35.314Z,16.97
2019-04-26T04:22:17.048Z,17.32
2019-04-26T04:24:51.311Z,15.48
2019-04-26T04:27:36.262Z,16.42
2019-04-26T04:30:08.882Z,15.80
2019-04-26T04:32:52.088Z,18.80
2019-04-26T04:35:24.217Z,17.82
2019-04-26T04:38:09.168Z,17.52
2019-04-26T04:40:44.834Z,19.92
2019-04-26T04:43:26.088Z,18.35
2019-04-26T04:46:12.468Z,16.93
2019-04-26T04:49:04.919Z,17.73
2019-04-26T04:51:49.888Z,18.70
2019-04-26T04:54:41.529Z,17.67
2019-04-26T04:57:34.995Z,17.00
2019-04-26T05:00:10.850Z,15.90
2019-04-26T05:02:56.915Z,16.73
2019-04-26T05:05:43.608Z,18.15
2019-04-26T05:08:24.912Z,15.83
2019-04-26T05:11:13.948Z,14.93
2019-04-26T05:13:55.143Z,16.65
2019-04-26T05:16:41.258Z,15.83
2019-04-26T05:19:26.465Z,15.28
2019-04-26T05:22:10.935Z,18.95
2019-04-26T05:25:03.005Z,17.40
2019-04-26T05:28:01.599Z,16.52
2019-04-26T05:31:05.739Z,16.12
2019-04-26T05:33:47.764Z,15.73
2019-04-26T05:36:29.820Z,15.85
2019-04-26T05:39:07.715Z,16.25
2019-04-26T05:42:04.511Z,13.78
2019-04-26T05:45:07.272Z,13.75
2019-04-26T05:48:03.146Z,12.80
2019-04-26T05:50:35.262Z,12.28
2019-04-26T05:53:18.287Z,12.35
2019-04-26T05:56:19.563Z,11.12
2019-04-26T05:59:00.271Z,10.58
2019-04-26T06:01:47.255Z,11.03
2019-04-26T06:04:48.812Z,10.25
2019-04-26T06:07:37.277Z,9.95
2019-04-26T06:10:35.889Z,9.70
2019-04-26T06:13:21.306Z,9.67
2019-04-26T06:15:58.215Z,9.60
2019-04-26T06:18:53.159Z,8.50
2019-04-26T06:21:28.638Z,8.38
2019-04-26T06:24:16.252Z,8.48
2019-04-26T06:27:09.282Z,8.80
2019-04-26T06:29:52.549Z,9.23
2019-04-26T06:33:02.810Z,8.40
2019-04-26T06:35:28.374Z,8.68
2019-04-26T06:38:05.487Z,8.23
2019-04-26T06:40:46.872Z,7.30
2019-04-26T06:43:26.400Z,7.00
2019-04-26T06:46:11.470Z,6.58
2019-04-26T06:49:01.037Z,6.80
2019-04-26T06:51:37.979Z,6.80
2019-04-26T06:54:28.886Z,6.73
2019-04-26T06:57:30.299Z,6.03
2019-04-26T07:00:06.639Z,6.70
2019-04-26T07:02:57.428Z,5.72
2019-04-26T07:05:30.158Z,6.20
2019-04-26T07:08:37.946Z,5.40
2019-04-26T07:11:18.979Z,6.45
2019-04-26T07:13:55.767Z,6.25
2019-04-26T07:16:37.222Z,6.37
2019-04-26T07:19:48.038Z,6.83
2019-04-26T07:22:37.474Z,6.30
2019-04-26T07:25:44.930Z,6.25
2019-04-26T07:28:51.479Z,7.05
2019-04-26T07:31:30.167Z,6.47
2019-04-26T07:34:23.498Z,5.72
2019-04-26T07:37:16.814Z,6.12
2019-04-26T07:40:12.107Z,6.37
2019-04-26T07:42:58.304Z,5.47
2019-04-26T07:45:59.889Z,6.08
2019-04-26T07:48:41.149Z,6.08
2019-04-26T07:51:16.667Z,6.08
2019-04-26T07:53:55.261Z,6.45
2019-04-26T07:56:30.795Z,5.97
2019-04-26T07:59:36.846Z,5.58
2019-04-26T08:02:33.681Z,4.95
2019-04-26T08:05:24.595Z,5.67
2019-04-26T08:07:57.197Z,5.42
2019-04-26T08:10:30.157Z,5.78
2019-04-26T08:13:06.090Z,5.70
2019-04-26T08:15:49.558Z,6.08
2019-04-26T08:18:26.691Z,6.47
2019-04-26T08:21:13.650Z,5.90
2019-04-26T08:23:45.654Z,6.50
2019-04-26T08:26:18.350Z,5.60
2019-04-26T08:28:50.661Z,5.37
2019-04-26T08:31:25.591Z,6.08
2019-04-26T08:33:59.574Z,5.72
2019-04-26T08:36:33.817Z,5.30
2019-04-26T08:39:07.011Z,5.80
2019-04-26T08:41:39.087Z,5.58
2019-04-26T08:44:17.237Z,5.00
2019-04-26T08:46:50.694Z,5.75
2019-04-26T08:49:28.401Z,5.42
2019-04-26T08:52:00.145Z,5.42
2019-04-26T08:54:33.250Z,5.65
2019-04-26T08:57:06.286Z,5.45
2019-04-26T08:59:41.912Z,5.33
2019-04-26T09:02:24.678Z,5.70
2019-04-26T09:05:17.147Z,5.28
2019-04-26T09:07:53.574Z,5.47
2019-04-26T09:10:24.607Z,5.50
2019-04-26T09:12:56.720Z,5.77
2019-04-26T09:15:45.823Z,5.95
2019-04-26T09:18:18.630Z,6.00
2019-04-26T09:20:49.883Z,5.65
2019-04-26T09:23:40.364Z,5.33
2019-04-26T09:26:12.489Z,5.92
2019-04-26T09:28:43.295Z,6.50
2019-04-26T09:31:19.738Z,6.10
2019-04-26T09:33:51.334Z,5.95
2019-04-26T09:36:21.053Z,6.55
2019-04-26T09:38:53.499Z,6.47
2019-04-26T09:41:26.483Z,6.08
2019-04-26T09:44:00.347Z,5.95
2019-04-26T09:46:52.130Z,6.42
2019-04-26T09:49:30.090Z,6.30
2019-04-26T09:52:00.995Z,6.35
2019-04-26T09:54:31.867Z,5.83
2019-04-26T09:57:02.674Z,6.10
2019-04-26T09:59:32.351Z,6.62
2019-04-26T10:02:02.006Z,6.65
2019-04-26T10:04:31.642Z,5.72
2019-04-26T10:07:03.310Z,5.80
2019-04-26T10:09:33.837Z,6.97
2019-04-26T10:12:08.066Z,6.33
2019-04-26T10:14:39.396Z,6.85
2019-04-26T10:17:15.755Z,6.67
2019-04-26T10:19:46.663Z,6.87
2019-04-26T10:22:16.370Z,6.50
2019-04-26T10:24:46.150Z,6.08
2019-04-26T10:27:15.857Z,6.33
2019-04-26T10:29:46.630Z,5.80
2019-04-26T10:32:16.355Z,6.40
2019-04-26T10:34:47.392Z,6.50
2019-04-26T10:37:17.443Z,6.33
2019-04-26T10:39:47.208Z,5.00
2019-04-26T10:42:17.013Z,5.15
2019-04-26T10:44:46.730Z,5.08
2019-04-26T10:47:19.194Z,5.50
2019-04-26T10:49:48.873Z,5.53
2019-04-26T10:52:35.574Z,5.55
2019-04-26T10:55:21.756Z,5.00
2019-04-26T10:57:56.575Z,4.87
2019-04-26T11:00:34.133Z,4.97
2019-04-26T11:03:04.557Z,5.50
2019-04-26T11:05:35.235Z,5.25
2019-04-26T11:08:05.646Z,5.47
2019-04-26T11:10:47.935Z,4.50
2019-04-26T11:13:07.946Z,4.55
2019-04-26T11:15:37.690Z,4.95
2019-04-26T11:18:07.399Z,4.58
2019-04-26T11:20:37.153Z,4.77
2019-04-26T11:23:08.169Z,4.30
2019-04-26T11:25:38.250Z,4.17
2019-04-26T11:28:07.953Z,4.22
2019-04-26T11:30:37.590Z,4.53
2019-04-26T11:33:10.882Z,4.05
2019-04-26T11:35:38.698Z,4.78
2019-04-26T11:38:08.410Z,4.33
2019-04-26T11:40:38.168Z,4.43
2019-04-26T11:43:07.882Z,4.30
2019-04-26T11:45:37.599Z,4.12
2019-04-26T11:48:07.318Z,4.17
2019-04-26T11:50:37.836Z,4.45
2019-04-26T11:53:10.258Z,3.10
2019-04-26T11:55:38.926Z,3.50
2019-04-26T11:58:09.678Z,3.83
2019-04-26T12:00:53.291Z,4.05
2019-04-26T12:03:24.919Z,4.00
2019-04-26T12:06:01.898Z,4.80
2019-04-26T12:08:37.030Z,3.93
2019-04-26T12:11:17.824Z,3.60
2019-04-26T12:13:38.210Z,3.90
2019-04-26T12:16:09.832Z,4.42
2019-04-26T12:18:40.183Z,3.95
2019-04-26T12:21:11.092Z,4.00
2019-04-26T12:23:40.850Z,3.55
2019-04-26T12:26:10.579Z,3.80
2019-04-26T12:28:41.375Z,3.47
2019-04-26T12:31:11.150Z,3.42
2019-04-26T12:33:43.747Z,3.77
2019-04-26T12:36:13.253Z,3.95
2019-04-26T12:38:44.036Z,3.85
2019-04-26T12:41:17.267Z,3.40
2019-04-26T12:43:45.134Z,3.42
2019-04-26T12:46:16.414Z,3.72
2019-04-26T12:48:49.657Z,4.17
2019-04-26T12:51:19.743Z,3.92
2019-04-26T12:53:49.666Z,4.03
2019-04-26T12:56:19.427Z,3.70
2019-04-26T12:58:50.000Z,3.98
2019-04-26T13:01:20.510Z,3.50
2019-04-26T13:04:08.039Z,3.75
2019-04-26T13:06:39.584Z,3.05
2019-04-26T13:09:12.234Z,2.95
2019-04-26T13:11:57.806Z,3.45
2019-04-26T13:14:32.038Z,3.87
2019-04-26T13:17:06.230Z,3.60
2019-04-26T13:19:35.947Z,2.83
2019-04-26T13:22:08.556Z,3.27
2019-04-26T13:24:39.849Z,4.08
2019-04-26T13:27:10.618Z,4.22
2019-04-26T13:29:39.702Z,4.10
2019-04-26T13:32:09.454Z,3.67
2019-04-26T13:34:40.166Z,5.70
2019-04-26T13:37:09.945Z,3.85
2019-04-26T13:39:39.663Z,4.75
2019-04-26T13:42:09.891Z,4.35
2019-04-26T13:44:58.919Z,3.85
2019-04-26T13:47:32.705Z,4.80
2019-04-26T13:50:13.685Z,4.78
2019-04-26T13:52:43.385Z,4.95
2019-04-26T13:55:14.182Z,4.00
2019-04-26T13:57:44.479Z,4.12
2019-04-26T14:00:16.982Z,4.65
2019-04-26T14:02:46.738Z,4.90
2019-04-26T14:05:16.940Z,5.03
2019-04-26T14:07:46.754Z,4.25
2019-04-26T14:10:16.458Z,4.60
2019-04-26T14:12:49.547Z,4.05
2019-04-26T14:15:17.464Z,5.08
2019-04-26T14:17:47.222Z,5.28
2019-04-26T14:20:19.203Z,5.15
2019-04-26T14:22:52.835Z,4.83
2019-04-26T14:25:40.325Z,4.95
2019-04-26T14:28:09.994Z,4.92
2019-04-26T14:30:41.816Z,5.07
2019-04-26T14:33:11.029Z,6.10
2019-04-26T14:35:40.748Z,5.58
2019-04-26T14:38:10.463Z,6.53
2019-04-26T14:40:43.040Z,6.70
2019-04-26T14:43:11.823Z,6.47
2019-04-26T14:45:41.585Z,6.00
2019-04-26T14:48:20.722Z,6.08
2019-04-26T14:50:42.650Z,5.87
2019-04-26T14:53:12.839Z,6.00
2019-04-26T14:55:42.558Z,7.00
2019-04-26T14:58:12.363Z,6.70
2019-04-26T15:00:43.886Z,6.57
2019-04-26T15:03:20.860Z,6.37
2019-04-26T15:06:07.418Z,6.22
2019-04-26T15:08:40.474Z,7.75
2019-04-26T15:11:08.495Z,6.62
2019-04-26T15:13:40.411Z,6.53
2019-04-26T15:16:11.925Z,6.57
2019-04-26T15:18:42.632Z,7.10
2019-04-26T15:21:12.907Z,7.53
